Sunday, July 22, 2018, 12:38 AM GMT
Back to Local

CYHU, Saint Hubert Airport

Location: , , Canada Lat: 45.517
Local Time: 12:38 AM GMT ( 0:38 GMT) Lon: -73.417
Time Zone: GMT Elev: 88 ft

Show me the last for .
Show Decoded

2018-07-22 00:00 METAR CYHU 220000Z AUTO 11006KT 9SM CLR 27/15 A3001 RMK SLP162 DENSITY ALT
                 1400FT =
2018-07-21 23:00 METAR CYHU 212300Z AUTO 10009KT 9SM CLR 30/13 A3000 RMK SLP161 DENSITY ALT
                 1700FT =
2018-07-21 22:00 METAR CYHU 212200Z AUTO 10010KT 9SM CLR 31/15 A3000 RMK SLP161 DENSITY ALT
                 1700FT =
2018-07-21 21:00 METAR CYHU 212100Z AUTO 08008KT 070V150 9SM CLR 31/15 A3002 RMK SLP166 DENSITY
                 ALT 1800FT =
2018-07-21 20:00 METAR CYHU 212000Z AUTO 11012G17KT 9SM CLR 31/13 A3002 RMK SLP166 DENSITY ALT
                 1800FT =
2018-07-21 19:00 METAR CYHU 211900Z AUTO 10007G16KT 060V130 9SM CLR 31/15 A3004 RMK SLP172
                 DENSITY ALT 1700FT =
2018-07-21 18:31 METAR CYHU 211831Z AUTO 14008G15KT 090V200 8SM CLR 30/16 A3004 RMK SLP174
                 DENSITY ALT 1700FT =
2018-07-21 18:21 METAR CYHU 211821Z AUTO 10007G15KT 070V140 4SM HZ CLR 30/15 A3005 RMK SLP175
                 DENSITY ALT 1700FT =
2018-07-21 18:00 METAR CYHU 211800Z AUTO 15012KT 090V160 6SM HZ CLR 30/16 A3005 RMK SLP177
                 DENSITY ALT 1700FT =
2018-07-21 17:00 METAR CYHU 211700Z AUTO 13009KT 090V170 9SM CLR 29/15 A3007 RMK SLP182 DENSITY
                 ALT 1500FT =
2018-07-21 16:00 METAR CYHU 211600Z AUTO 16008KT 110V200 9SM CLR 29/14 A3008 RMK SLP188 DENSITY
                 ALT 1500FT =
2018-07-21 15:00 METAR CYHU 211500Z AUTO 20005KT 110V240 9SM CLR 28/17 A3009 RMK SLP192 DENSITY
                 ALT 1300FT =
2018-07-21 14:00 METAR CYHU 211400Z AUTO 20004KT 150V220 9SM CLR 26/17 A3009 RMK SLP192 DENSITY
                 ALT 1100FT =
2018-07-21 13:00 METAR CYHU 211300Z AUTO 17005KT 130V210 9SM CLR 25/17 A3010 RMK SLP193 DENSITY
                 ALT 1000FT =
2018-07-21 12:00 METAR CYHU 211200Z AUTO 18007KT 9SM CLR 23/16 A3010 RMK SLP195 DENSITY ALT 800FT
                 =
2018-07-21 11:00 METAR CYHU 211100Z AUTO 17004KT 8SM CLR 20/15 A3010 RMK SLP193 DENSITY ALT 500FT
                 =
2018-07-21 10:00 METAR CYHU 211000Z AUTO 17004KT 9SM CLR 17/14 A3009 RMK SLP192 DENSITY ALT 100FT
                 =
2018-07-21 09:00 METAR CYHU 210900Z AUTO 12003KT 9SM CLR 17/13 A3007 RMK SLP186 DENSITY ALT 200FT
                 =
2018-07-21 08:00 METAR CYHU 210800Z AUTO 14004KT 9SM CLR 18/14 A3006 RMK SLP182 DENSITY ALT 200FT
                 =
2018-07-21 07:00 METAR CYHU 210700Z AUTO 13004KT 9SM CLR 18/14 A3006 RMK SLP180 DENSITY ALT 300FT
                 =
2018-07-21 06:00 METAR CYHU 210600Z AUTO 13005KT 9SM CLR 20/14 A3005 RMK SLP177 DENSITY ALT 500FT
                 =
2018-07-21 05:00 METAR CYHU 210500Z AUTO 14003KT 9SM CLR 21/16 A3005 RMK SLP176 DENSITY ALT 600FT
                 =
2018-07-21 04:00 METAR CYHU 210400Z AUTO 14004KT 9SM CLR 22/16 A3005 RMK SLP175 DENSITY ALT 700FT
                 =
2018-07-21 03:00 METAR CYHU 210300Z AUTO 12004KT 9SM CLR 23/16 A3005 RMK SLP175 DENSITY ALT 800FT
                 =
2018-07-21 02:00 METAR CYHU 210200Z AUTO 13002KT 9SM CLR 24/16 A3004 RMK SLP173 DENSITY ALT
                 1000FT =
2018-07-21 01:00 METAR CYHU 210100Z AUTO 06004KT 9SM CLR 24/16 A3003 RMK SLP172 DENSITY ALT 900FT
                 =

Support USWX by starting your Amazon purchase here.